Time;durP1;ratioP1;P1;durP2;ratioP2;P2;SDS_P1;SDS_P2;PMS_P1;PMS_P2;Temp;Humidity;BMP_temperature;BMP_pressure;BME280_temperature;BME280_humidity;BME280_pressure;Samples;Min_cycle;Max_cycle;Signal;HPM_P1;HPM_P2
2021/07/10 08:07:08;;;;;;;4.35;3.17;;;22.50;99.90;;;;;;14892402;22;1401389;-63
2021/07/10 08:12:55;;;;;;;5.75;4.00;;;22.70;99.90;;;;;;14776098;22;20039;-63
2021/07/10 08:18:42;;;;;;;7.63;3.47;;;22.90;99.90;;;;;;14780794;22;20024;-64
2021/07/10 08:24:30;;;;;;;1.90;1.70;;;22.90;99.90;;;;;;14777911;22;20024;-63
2021/07/10 08:30:18;;;;;;;3.65;1.85;;;22.90;98.70;;;;;;14775317;22;20038;-63
2021/07/10 08:36:07;;;;;;;2.30;1.70;;;22.80;97.80;;;;;;14774110;23;20367;-63
2021/07/10 08:41:56;;;;;;;4.65;2.13;;;22.70;96.80;;;;;;14778548;22;20065;-62
2021/07/10 08:47:45;;;;;;;2.97;1.73;;;22.60;97.50;;;;;;14774839;22;20028;-63
2021/07/10 08:53:33;;;;;;;2.67;1.60;;;22.60;98.60;;;;;;14776879;22;20032;-64
2021/07/10 08:59:21;;;;;;;3.50;2.00;;;22.60;99.90;;;;;;14767397;22;20032;-63
2021/07/10 09:05:10;;;;;;;5.35;2.30;;;22.50;99.90;;;;;;14760922;22;20048;-62
2021/07/10 10:04:29;;;;;;;8.00;4.15;;;22.30;99.90;;;;;;14890865;22;1432523;-65
2021/07/10 10:10:24;;;;;;;8.00;3.83;;;22.40;99.90;;;;;;14774181;23;20028;-65
2021/07/10 10:16:15;;;;;;;6.60;3.10;;;22.60;99.90;;;;;;14771601;23;20058;-65
2021/07/10 10:22:06;;;;;;;3.38;2.40;;;22.90;99.90;;;;;;14772300;23;20028;-65
2021/07/10 10:27:53;;;;;;;3.13;2.33;;;22.80;99.90;;;;;;14804114;23;20029;-65
2021/07/10 10:33:42;;;;;;;2.22;2.03;;;22.90;99.90;;;;;;14806677;23;20048;-65
2021/07/10 10:39:33;;;;;;;3.25;1.95;;;23.00;99.90;;;;;;14806426;23;20095;-65
2021/07/10 10:45:27;;;;;;;1.85;1.75;;;23.20;99.90;;;;;;14805235;23;20052;-65
2021/07/10 10:51:42;;;;;;;2.47;1.63;;;23.20;99.90;;;;;;14804432;23;20020;-65
2021/07/10 11:04:11;;;;;;;3.10;1.85;;;22.60;99.70;;;;;;14492439;23;20026;-65
2021/07/10 11:10:10;;;;;;;3.92;1.98;;;22.80;99.70;;;;;;14470367;23;20022;-66
2021/07/10 11:16:06;;;;;;;3.13;1.90;;;22.80;99.90;;;;;;14470510;23;20030;-66
2021/07/10 11:21:54;;;;;;;4.82;2.00;;;22.70;99.50;;;;;;14474127;23;20360;-65
2021/07/10 11:27:41;;;;;;;2.08;1.73;;;22.70;99.90;;;;;;14342603;23;20029;-66
2021/07/10 11:33:57;;;;;;;2.17;1.92;;;22.70;99.90;;;;;;14636516;23;20025;-66
2021/07/10 11:40:04;;;;;;;4.43;2.20;;;22.80;99.60;;;;;;14681710;23;20028;-65
2021/07/10 11:45:51;;;;;;;2.53;2.08;;;22.50;99.90;;;;;;14712144;23;20024;-66
2021/07/10 11:51:38;;;;;;;2.58;1.92;;;22.50;99.90;;;;;;14718275;23;20103;-66
2021/07/10 11:57:28;;;;;;;3.10;2.13;;;22.50;99.50;;;;;;14695649;23;20032;-62
2021/07/10 12:03:19;;;;;;;2.70;2.20;;;22.60;99.90;;;;;;14733196;23;20028;-64
2021/07/10 12:09:21;;;;;;;2.75;2.00;;;22.40;99.90;;;;;;14721444;23;20068;-62
2021/07/10 12:15:15;;;;;;;3.17;2.40;;;22.60;99.90;;;;;;14750038;23;20311;-62
2021/07/10 12:21:05;;;;;;;2.78;2.22;;;22.60;99.90;;;;;;14713344;22;20076;-62
2021/07/10 12:26:52;;;;;;;2.97;1.90;;;22.80;99.20;;;;;;14712967;23;20032;-62
2021/07/10 12:32:40;;;;;;;2.65;2.05;;;23.30;99.00;;;;;;14712206;23;20041;-62
2021/07/10 12:38:27;;;;;;;2.50;2.10;;;23.20;98.20;;;;;;14709693;22;20125;-62
2021/07/10 12:44:20;;;;;;;2.60;2.03;;;23.50;98.20;;;;;;14715943;23;20100;-62
2021/07/10 12:50:10;;;;;;;2.72;2.00;;;23.20;97.90;;;;;;14711927;23;20068;-62
2021/07/10 12:56:12;;;;;;;5.57;2.15;;;22.80;98.50;;;;;;14751768;22;20032;-62
2021/07/10 13:01:59;;;;;;;4.60;2.07;;;22.50;99.90;;;;;;14783221;22;20472;-62
2021/07/10 13:07:53;;;;;;;2.92;2.13;;;22.40;99.90;;;;;;14742161;23;20358;-63
2021/07/10 13:13:43;;;;;;;1.90;1.77;;;22.90;99.90;;;;;;14737905;23;20032;-63
2021/07/10 13:19:33;;;;;;;6.22;2.47;;;23.30;99.90;;;;;;14750290;23;20021;-63
2021/07/10 13:25:21;;;;;;;3.45;1.95;;;23.90;99.90;;;;;;14749039;22;20048;-62
2021/07/10 13:31:24;;;;;;;2.30;2.05;;;23.80;97.50;;;;;;14710961;23;20021;-62
2021/07/10 13:37:12;;;;;;;1.70;1.60;;;23.70;99.10;;;;;;14711008;23;20025;-62
2021/07/10 13:43:01;;;;;;;2.85;1.90;;;23.60;97.60;;;;;;14741633;23;20054;-62
2021/07/10 13:48:48;;;;;;;2.97;2.03;;;23.50;96.80;;;;;;14754104;23;20425;-62
2021/07/10 13:54:37;;;;;;;3.58;2.10;;;23.50;97.50;;;;;;14710380;22;20031;-62
2021/07/10 14:00:29;;;;;;;5.00;2.00;;;23.40;97.10;;;;;;14710467;23;20105;-62
2021/07/10 14:06:15;;;;;;;5.07;2.10;;;23.40;96.40;;;;;;14731045;23;20025;-63
2021/07/10 14:12:05;;;;;;;4.00;2.03;;;23.60;95.90;;;;;;14733366;23;20104;-62
2021/07/10 14:17:54;;;;;;;3.97;1.63;;;23.50;95.00;;;;;;14761737;22;20032;-61
2021/07/10 14:23:40;;;;;;;3.90;2.08;;;23.50;96.20;;;;;;14781219;23;20048;-62
2021/07/10 14:29:27;;;;;;;3.10;2.00;;;23.40;96.50;;;;;;14782485;23;20047;-62
2021/07/10 14:35:17;;;;;;;4.15;1.83;;;22.80;97.00;;;;;;14786580;23;20016;-62
2021/07/10 14:47:05;;;;;;;3.80;2.10;;;22.90;97.80;;;;;;14783732;23;20020;-63
2021/07/10 14:52:54;;;;;;;2.60;1.75;;;22.90;97.70;;;;;;14783975;23;20024;-62
2021/07/10 14:58:41;;;;;;;3.80;1.92;;;23.00;98.20;;;;;;14783852;22;20060;-63
2021/07/10 15:04:28;;;;;;;3.28;1.95;;;23.40;98.00;;;;;;14776995;23;20025;-63
2021/07/10 15:10:18;;;;;;;2.40;2.08;;;23.10;98.10;;;;;;14784044;23;20478;-62
2021/07/10 15:16:08;;;;;;;2.97;2.08;;;22.60;98.00;;;;;;14784471;23;20021;-61
2021/07/10 15:21:54;;;;;;;3.67;2.40;;;22.30;99.20;;;;;;14754625;22;20024;-61
2021/07/10 15:27:43;;;;;;;3.10;2.15;;;22.10;99.90;;;;;;14783460;23;20031;-62
2021/07/10 15:33:30;;;;;;;3.47;2.10;;;22.30;99.90;;;;;;14783100;23;20112;-61
2021/07/10 15:39:18;;;;;;;1.90;1.80;;;22.60;98.80;;;;;;14784592;23;20033;-61
2021/07/10 15:45:08;;;;;;;3.50;2.00;;;23.00;98.70;;;;;;14784779;22;20048;-62
2021/07/10 15:50:56;;;;;;;1.50;1.40;;;22.90;98.30;;;;;;14765769;22;20104;-60
2021/07/10 15:56:43;;;;;;;1.73;1.60;;;23.00;98.20;;;;;;14711808;23;20108;-62
2021/07/10 16:02:31;;;;;;;1.88;1.55;;;23.30;98.20;;;;;;14712195;23;20096;-62
2021/07/10 16:08:18;;;;;;;1.42;1.33;;;23.50;96.40;;;;;;14710957;22;20036;-65
2021/07/10 16:14:05;;;;;;;2.20;1.60;;;23.10;97.10;;;;;;14746418;23;20024;-66
2021/07/10 16:19:53;;;;;;;2.08;1.40;;;22.90;97.50;;;;;;14741047;23;20103;-65
2021/07/10 16:25:40;;;;;;;3.35;1.48;;;22.70;98.10;;;;;;14714403;22;20558;-66
2021/07/10 16:31:27;;;;;;;3.47;1.60;;;22.70;98.00;;;;;;14716776;22;20095;-65
2021/07/10 16:37:15;;;;;;;3.50;1.73;;;22.50;98.50;;;;;;14714789;23;20108;-66
2021/07/10 16:43:02;;;;;;;3.13;1.73;;;22.30;98.50;;;;;;14748663;23;20116;-66
2021/07/10 16:48:49;;;;;;;2.75;2.10;;;22.40;98.70;;;;;;14708636;23;20449;-65
2021/07/10 16:54:37;;;;;;;2.75;2.00;;;22.30;99.10;;;;;;14709641;22;20021;-65
2021/07/10 17:00:28;;;;;;;3.83;2.10;;;22.40;99.40;;;;;;14732896;23;20099;-65
2021/07/10 17:06:15;;;;;;;2.65;1.95;;;22.40;99.50;;;;;;14648938;23;20085;-66
2021/07/10 17:12:04;;;;;;;4.30;2.35;;;22.40;99.90;;;;;;14697669;23;20465;-65
2021/07/10 17:17:52;;;;;;;2.63;2.30;;;22.30;99.90;;;;;;14755772;23;20028;-65
2021/07/10 17:23:39;;;;;;;3.47;2.15;;;23.00;99.90;;;;;;14759294;23;20020;-66
2021/07/10 17:29:27;;;;;;;6.15;3.00;;;24.70;99.90;;;;;;14780735;23;20040;-66
2021/07/10 17:35:16;;;;;;;2.70;2.33;;;25.40;99.90;;;;;;14781769;23;20103;-66
2021/07/10 17:41:04;;;;;;;3.72;1.80;;;24.80;99.20;;;;;;14782562;22;20103;-66
2021/07/10 17:46:52;;;;;;;2.40;2.17;;;24.90;98.20;;;;;;14782154;22;20031;-66
2021/07/10 17:52:40;;;;;;;3.30;2.08;;;24.40;97.80;;;;;;14782302;23;20099;-66
2021/07/10 17:58:27;;;;;;;2.03;1.50;;;23.70;99.90;;;;;;14784173;23;20031;-66
2021/07/10 18:04:15;;;;;;;2.10;1.50;;;23.40;99.90;;;;;;14780881;22;20100;-66
2021/07/10 18:10:02;;;;;;;3.58;1.60;;;23.70;98.40;;;;;;14787007;23;20016;-66
2021/07/10 18:15:49;;;;;;;2.97;1.40;;;23.20;99.20;;;;;;14706767;23;20503;-66
2021/07/10 18:21:38;;;;;;;1.50;1.40;;;23.30;99.90;;;;;;14786380;22;20040;-66
2021/07/10 18:27:25;;;;;;;1.50;1.17;;;25.70;94.00;;;;;;14787435;22;20544;-66
2021/07/10 18:33:12;;;;;;;6.10;1.90;;;24.30;95.40;;;;;;14786537;23;20100;-66
2021/07/10 18:39:00;;;;;;;2.28;1.25;;;23.40;97.70;;;;;;14785225;23;20029;-65
2021/07/10 18:44:48;;;;;;;1.25;1.15;;;23.20;99.30;;;;;;14784425;23;20034;-66
2021/07/10 18:50:35;;;;;;;4.47;1.15;;;24.30;97.10;;;;;;14783288;22;20024;-66
2021/07/10 18:56:27;;;;;;;2.22;1.10;;;24.90;95.40;;;;;;14783140;22;20097;-66
2021/07/10 19:02:14;;;;;;;2.83;1.20;;;25.00;94.30;;;;;;14783896;23;20102;-66
2021/07/10 19:08:00;;;;;;;2.50;1.40;;;24.10;95.40;;;;;;14772516;23;20016;-66
2021/07/10 19:13:49;;;;;;;3.75;1.63;;;23.60;96.40;;;;;;14790696;22;20135;-66
2021/07/10 19:19:36;;;;;;;1.13;1.00;;;23.20;97.40;;;;;;14785241;23;20094;-66
2021/07/10 19:25:25;;;;;;;4.63;1.33;;;22.90;98.30;;;;;;14789173;23;20111;-67
2021/07/10 19:31:16;;;;;;;3.03;2.00;;;22.80;98.80;;;;;;14784834;23;20031;-67
2021/07/10 19:37:03;;;;;;;1.40;1.23;;;22.60;99.30;;;;;;14784312;22;20504;-66
2021/07/10 19:42:51;;;;;;;7.85;1.50;;;22.40;99.90;;;;;;14784769;23;20020;-67
2021/07/10 19:48:39;;;;;;;2.78;1.38;;;22.30;99.90;;;;;;14784259;23;20021;-66
2021/07/10 19:54:26;;;;;;;6.50;1.48;;;22.20;99.90;;;;;;14784019;23;20038;-66
2021/07/10 20:00:15;;;;;;;3.95;1.80;;;22.10;99.90;;;;;;14783064;23;20056;-64
2021/07/10 20:06:05;;;;;;;3.42;1.52;;;21.90;99.90;;;;;;14778818;22;20474;-65
2021/07/10 20:11:51;;;;;;;2.78;1.77;;;21.70;99.90;;;;;;14781821;23;20135;-65
2021/07/10 20:17:38;;;;;;;2.65;1.75;;;21.80;99.90;;;;;;14781483;23;20080;-65
2021/07/10 20:23:27;;;;;;;3.67;1.23;;;21.80;99.90;;;;;;14780501;22;20107;-66
2021/07/10 20:29:13;;;;;;;1.30;1.20;;;21.70;99.90;;;;;;14780340;23;20026;-66
2021/07/10 20:35:00;;;;;;;4.20;1.58;;;21.70;99.90;;;;;;14782066;23;20028;-66
2021/07/10 20:40:49;;;;;;;4.68;2.03;;;21.60;99.90;;;;;;14776607;23;20103;-65
2021/07/10 20:46:36;;;;;;;3.28;2.03;;;21.50;99.90;;;;;;14711301;23;20035;-66
2021/07/10 20:52:22;;;;;;;4.60;1.60;;;21.50;99.90;;;;;;14783134;23;20504;-65
2021/07/10 20:58:11;;;;;;;4.80;1.50;;;21.40;99.90;;;;;;14781391;23;20373;-66
2021/07/10 21:03:58;;;;;;;4.45;1.85;;;21.30;99.90;;;;;;14775006;23;20047;-65
2021/07/10 21:09:45;;;;;;;4.78;2.00;;;21.30;99.90;;;;;;14767770;23;20046;-67
2021/07/10 21:15:33;;;;;;;6.10;1.85;;;21.20;99.90;;;;;;14780746;23;20028;-66
2021/07/10 21:21:20;;;;;;;2.20;1.63;;;21.20;99.90;;;;;;14780826;23;20074;-66
2021/07/10 21:27:07;;;;;;;5.20;2.20;;;21.10;99.90;;;;;;14780697;23;20096;-66
2021/07/10 21:32:56;;;;;;;4.32;2.10;;;21.10;99.90;;;;;;14781013;22;20098;-66
2021/07/10 21:38:42;;;;;;;5.28;1.98;;;21.00;99.90;;;;;;14780159;22;20111;-66
2021/07/10 21:44:29;;;;;;;4.32;2.08;;;21.00;99.90;;;;;;14780621;23;20036;-66
2021/07/10 21:50:20;;;;;;;2.63;1.90;;;20.80;99.90;;;;;;14780200;23;20467;-66
2021/07/10 21:56:07;;;;;;;5.60;2.25;;;20.80;99.90;;;;;;14780545;22;20027;-65
2021/07/10 22:01:54;;;;;;;6.10;2.10;;;20.90;99.90;;;;;;14779948;23;20020;-66
2021/07/10 22:07:42;;;;;;;3.85;2.38;;;20.80;99.90;;;;;;14753121;23;20100;-62
2021/07/10 22:13:29;;;;;;;4.28;2.17;;;20.80;99.90;;;;;;14754035;23;20028;-62
2021/07/10 22:19:17;;;;;;;4.60;2.30;;;20.80;99.90;;;;;;14749010;23;20039;-61
2021/07/10 22:25:07;;;;;;;5.47;3.97;;;20.90;99.90;;;;;;14750973;23;20021;-63
2021/07/10 22:30:54;;;;;;;7.50;3.70;;;20.80;99.90;;;;;;14751875;23;20035;-62
2021/07/10 22:36:41;;;;;;;5.35;2.60;;;20.80;99.90;;;;;;14755926;23;20039;-62
2021/07/10 22:42:29;;;;;;;3.22;2.60;;;20.80;99.90;;;;;;14772256;23;20039;-63
2021/07/10 22:48:16;;;;;;;6.72;3.15;;;20.70;99.90;;;;;;14781757;23;20020;-60
2021/07/10 22:54:05;;;;;;;6.07;2.42;;;20.60;99.90;;;;;;14784303;23;20099;-60
2021/07/10 22:59:53;;;;;;;3.63;2.25;;;20.60;99.90;;;;;;14785931;23;20106;-60
